sensor_id;sensor_type;location;lat;lon;timestamp;pressure;altitude;pressure_sealevel;temperature;humidity
80693;BME280;70055;39.436;-77.514;2024-01-30T00:00:21;99626.69;;;-0.84;59.53
80693;BME280;70055;39.436;-77.514;2024-01-30T00:02:50;99636.52;;;-2.14;61.92
80693;BME280;70055;39.436;-77.514;2024-01-30T00:05:20;99643.41;;;-1.32;60.72
80693;BME280;70055;39.436;-77.514;2024-01-30T00:07:48;99637.94;;;0.67;55.01
80693;BME280;70055;39.436;-77.514;2024-01-30T00:10:16;99646.48;;;-0.39;56.46
80693;BME280;70055;39.436;-77.514;2024-01-30T00:12:45;99652.60;;;-1.09;57.85
80693;BME280;70055;39.436;-77.514;2024-01-30T00:15:13;99652.10;;;-0.33;58.21
80693;BME280;70055;39.436;-77.514;2024-01-30T00:17:42;99657.51;;;-0.82;57.56
80693;BME280;70055;39.436;-77.514;2024-01-30T00:20:10;99651.33;;;0.84;52.88
80693;BME280;70055;39.436;-77.514;2024-01-30T00:22:40;99659.93;;;-0.61;58.68
80693;BME280;70055;39.436;-77.514;2024-01-30T00:25:08;99662.32;;;0.05;56.54
80693;BME280;70055;39.436;-77.514;2024-01-30T00:27:36;99663.73;;;1.12;54.47
80693;BME280;70055;39.436;-77.514;2024-01-30T00:30:05;99663.73;;;0.78;53.08
80693;BME280;70055;39.436;-77.514;2024-01-30T00:32:32;99664.97;;;-0.38;56.01
80693;BME280;70055;39.436;-77.514;2024-01-30T00:35:00;99674.03;;;-1.76;61.02
80693;BME280;70055;39.436;-77.514;2024-01-30T00:37:29;99675.99;;;-1.60;62.10
80693;BME280;70055;39.436;-77.514;2024-01-30T00:39:57;99684.43;;;-1.42;62.15
80693;BME280;70055;39.436;-77.514;2024-01-30T00:42:28;99679.56;;;-1.58;61.94
80693;BME280;70055;39.436;-77.514;2024-01-30T00:44:56;99686.59;;;-1.24;61.54
80693;BME280;70055;39.436;-77.514;2024-01-30T00:47:23;99685.69;;;-1.51;62.00
80693;BME280;70055;39.436;-77.514;2024-01-30T00:49:51;99684.65;;;-0.62;60.16
80693;BME280;70055;39.436;-77.514;2024-01-30T00:52:20;99685.93;;;-0.09;57.81
80693;BME280;70055;39.436;-77.514;2024-01-30T00:54:48;99689.27;;;0.33;55.78
80693;BME280;70055;39.436;-77.514;2024-01-30T00:57:18;99695.62;;;-0.38;56.54
80693;BME280;70055;39.436;-77.514;2024-01-30T00:59:46;99707.04;;;-1.52;59.39
80693;BME280;70055;39.436;-77.514;2024-01-30T01:02:15;99709.81;;;-0.62;58.26
80693;BME280;70055;39.436;-77.514;2024-01-30T01:04:45;99714.29;;;-0.58;58.53
80693;BME280;70055;39.436;-77.514;2024-01-30T01:07:13;99723.10;;;-0.97;60.07
80693;BME280;70055;39.436;-77.514;2024-01-30T01:09:41;99712.25;;;0.29;56.06
80693;BME280;70055;39.436;-77.514;2024-01-30T01:12:11;99715.71;;;-1.07;59.28
80693;BME280;70055;39.436;-77.514;2024-01-30T01:14:40;99715.53;;;-0.69;59.32
80693;BME280;70055;39.436;-77.514;2024-01-30T01:17:08;99712.96;;;0.43;55.93
80693;BME280;70055;39.436;-77.514;2024-01-30T01:19:37;99709.02;;;1.40;52.16
80693;BME280;70055;39.436;-77.514;2024-01-30T01:22:05;99713.49;;;0.13;53.49
80693;BME280;70055;39.436;-77.514;2024-01-30T01:24:33;99710.98;;;-0.36;55.89
80693;BME280;70055;39.436;-77.514;2024-01-30T01:27:01;99711.28;;;-0.09;55.90
80693;BME280;70055;39.436;-77.514;2024-01-30T01:29:29;99718.88;;;-0.76;58.16
80693;BME280;70055;39.436;-77.514;2024-01-30T01:31:57;99719.17;;;-0.68;57.64
80693;BME280;70055;39.436;-77.514;2024-01-30T01:34:27;99722.25;;;0.51;55.33
80693;BME280;70055;39.436;-77.514;2024-01-30T01:36:56;99730.55;;;-0.99;57.58
80693;BME280;70055;39.436;-77.514;2024-01-30T01:39:26;99732.39;;;-0.23;57.00
80693;BME280;70055;39.436;-77.514;2024-01-30T01:41:54;99745.69;;;-1.18;59.42
80693;BME280;70055;39.436;-77.514;2024-01-30T01:44:21;99740.60;;;0.75;55.28
80693;BME280;70055;39.436;-77.514;2024-01-30T01:46:50;99745.40;;;0.60;53.54
80693;BME280;70055;39.436;-77.514;2024-01-30T01:49:20;99751.27;;;-0.52;57.15
80693;BME280;70055;39.436;-77.514;2024-01-30T01:51:49;99755.15;;;-1.47;59.40
80693;BME280;70055;39.436;-77.514;2024-01-30T01:54:22;99757.04;;;-1.24;60.79
80693;BME280;70055;39.436;-77.514;2024-01-30T01:56:52;99758.57;;;-0.95;58.73
80693;BME280;70055;39.436;-77.514;2024-01-30T01:59:20;99747.98;;;-0.09;56.39
80693;BME280;70055;39.436;-77.514;2024-01-30T02:01:49;99753.10;;;0.66;53.75
80693;BME280;70055;39.436;-77.514;2024-01-30T02:04:17;99758.51;;;-1.12;57.38
80693;BME280;70055;39.436;-77.514;2024-01-30T02:06:45;99756.45;;;0.15;54.03
80693;BME280;70055;39.436;-77.514;2024-01-30T02:09:14;99750.82;;;0.57;53.62
80693;BME280;70055;39.436;-77.514;2024-01-30T02:11:43;99760.13;;;0.05;54.90
80693;BME280;70055;39.436;-77.514;2024-01-30T02:14:11;99766.68;;;-1.59;60.72
80693;BME280;70055;39.436;-77.514;2024-01-30T02:16:39;99753.03;;;0.34;54.90
80693;BME280;70055;39.436;-77.514;2024-01-30T02:19:09;99755.63;;;0.94;54.26
80693;BME280;70055;39.436;-77.514;2024-01-30T02:21:37;99756.38;;;1.50;52.25
80693;BME280;70055;39.436;-77.514;2024-01-30T02:24:06;99750.36;;;1.77;51.09
80693;BME280;70055;39.436;-77.514;2024-01-30T02:26:37;99757.28;;;1.76;51.18
80693;BME280;70055;39.436;-77.514;2024-01-30T02:29:05;99758.02;;;1.75;49.01
80693;BME280;70055;39.436;-77.514;2024-01-30T02:31:35;99764.76;;;0.39;53.21
80693;BME280;70055;39.436;-77.514;2024-01-30T02:34:03;99765.75;;;0.90;52.42
80693;BME280;70055;39.436;-77.514;2024-01-30T02:36:31;99767.44;;;0.77;52.40
80693;BME280;70055;39.436;-77.514;2024-01-30T02:39:00;99766.38;;;2.54;48.08
80693;BME280;70055;39.436;-77.514;2024-01-30T02:41:28;99771.84;;;2.11;48.60
80693;BME280;70055;39.436;-77.514;2024-01-30T02:43:56;99773.96;;;1.47;49.86
80693;BME280;70055;39.436;-77.514;2024-01-30T02:46:24;99777.53;;;2.25;48.74
80693;BME280;70055;39.436;-77.514;2024-01-30T02:48:53;99786.42;;;-0.93;54.48
80693;BME280;70055;39.436;-77.514;2024-01-30T02:51:22;99791.03;;;-0.51;56.44
80693;BME280;70055;39.436;-77.514;2024-01-30T02:53:51;99799.55;;;-1.51;59.00
80693;BME280;70055;39.436;-77.514;2024-01-30T02:56:21;99793.37;;;0.18;54.69
80693;BME280;70055;39.436;-77.514;2024-01-30T02:58:49;99795.62;;;0.95;52.61
80693;BME280;70055;39.436;-77.514;2024-01-30T03:01:18;99796.09;;;-0.00;52.96
80693;BME280;70055;39.436;-77.514;2024-01-30T03:03:46;99795.42;;;0.03;53.94
80693;BME280;70055;39.436;-77.514;2024-01-30T03:06:15;99792.09;;;1.59;50.89
80693;BME280;70055;39.436;-77.514;2024-01-30T03:08:45;99797.91;;;0.01;53.24
80693;BME280;70055;39.436;-77.514;2024-01-30T03:11:13;99793.71;;;0.64;53.17
80693;BME280;70055;39.436;-77.514;2024-01-30T03:13:41;99795.53;;;-0.05;55.83
80693;BME280;70055;39.436;-77.514;2024-01-30T03:16:10;99794.00;;;-0.49;56.25
80693;BME280;70055;39.436;-77.514;2024-01-30T03:18:39;99790.84;;;0.42;54.87
80693;BME280;70055;39.436;-77.514;2024-01-30T03:21:07;99790.07;;;1.55;51.19
80693;BME280;70055;39.436;-77.514;2024-01-30T03:23:35;99801.10;;;-0.34;55.04
80693;BME280;70055;39.436;-77.514;2024-01-30T03:26:03;99798.96;;;-0.15;56.04
80693;BME280;70055;39.436;-77.514;2024-01-30T03:28:33;99804.48;;;-1.28;58.55
80693;BME280;70055;39.436;-77.514;2024-01-30T03:31:02;99798.40;;;-0.31;57.98
80693;BME280;70055;39.436;-77.514;2024-01-30T03:33:30;99796.36;;;0.19;56.13
80693;BME280;70055;39.436;-77.514;2024-01-30T03:36:04;99794.16;;;1.64;52.49
80693;BME280;70055;39.436;-77.514;2024-01-30T03:38:33;99793.44;;;1.05;52.15
80693;BME280;70055;39.436;-77.514;2024-01-30T03:41:01;99794.46;;;0.02;54.91
80693;BME280;70055;39.436;-77.514;2024-01-30T03:43:30;99788.21;;;2.17;50.12
80693;BME280;70055;39.436;-77.514;2024-01-30T03:45:58;99795.47;;;-0.69;55.79
80693;BME280;70055;39.436;-77.514;2024-01-30T03:48:27;99795.87;;;-0.45;56.12
80693;BME280;70055;39.436;-77.514;2024-01-30T03:50:54;99802.51;;;-0.90;57.69
80693;BME280;70055;39.436;-77.514;2024-01-30T03:53:22;99808.11;;;-1.32;58.65
80693;BME280;70055;39.436;-77.514;2024-01-30T03:55:53;99807.67;;;-1.18;58.12
80693;BME280;70055;39.436;-77.514;2024-01-30T03:58:23;99812.68;;;-1.01;58.09
80693;BME280;70055;39.436;-77.514;2024-01-30T04:00:53;99815.33;;;-1.10;59.01
80693;BME280;70055;39.436;-77.514;2024-01-30T04:03:22;99810.72;;;-0.04;56.13
80693;BME280;70055;39.436;-77.514;2024-01-30T04:05:52;99813.87;;;-1.84;59.63
80693;BME280;70055;39.436;-77.514;2024-01-30T04:08:20;99812.96;;;-0.80;57.66
80693;BME280;70055;39.436;-77.514;2024-01-30T04:10:51;99821.88;;;-0.96;59.01
80693;BME280;70055;39.436;-77.514;2024-01-30T04:13:24;99821.31;;;0.04;56.59
80693;BME280;70055;39.436;-77.514;2024-01-30T04:15:52;99819.70;;;0.33;56.42
80693;BME280;70055;39.436;-77.514;2024-01-30T04:18:20;99824.99;;;-0.82;55.89
80693;BME280;70055;39.436;-77.514;2024-01-30T04:20:49;99824.65;;;0.65;54.49
80693;BME280;70055;39.436;-77.514;2024-01-30T04:23:17;99823.55;;;-0.11;55.06
80693;BME280;70055;39.436;-77.514;2024-01-30T04:25:48;99820.63;;;1.07;52.92
80693;BME280;70055;39.436;-77.514;2024-01-30T04:28:17;99817.84;;;1.67;49.42
80693;BME280;70055;39.436;-77.514;2024-01-30T04:30:44;99819.27;;;2.42;48.91
80693;BME280;70055;39.436;-77.514;2024-01-30T04:33:13;99817.98;;;2.57;48.08
80693;BME280;70055;39.436;-77.514;2024-01-30T04:35:41;99825.08;;;0.72;52.08
80693;BME280;70055;39.436;-77.514;2024-01-30T04:38:09;99832.38;;;-1.06;58.38
80693;BME280;70055;39.436;-77.514;2024-01-30T04:40:39;99835.08;;;-0.90;58.43
80693;BME280;70055;39.436;-77.514;2024-01-30T04:43:07;99832.60;;;-0.80;57.19
80693;BME280;70055;39.436;-77.514;2024-01-30T04:45:35;99828.25;;;-0.57;56.87
80693;BME280;70055;39.436;-77.514;2024-01-30T04:48:03;99827.12;;;-0.68;57.66
80693;BME280;70055;39.436;-77.514;2024-01-30T04:50:31;99821.19;;;-0.65;57.75
80693;BME280;70055;39.436;-77.514;2024-01-30T04:52:58;99815.02;;;-0.06;54.99
80693;BME280;70055;39.436;-77.514;2024-01-30T04:55:27;99822.46;;;-0.69;56.83
80693;BME280;70055;39.436;-77.514;2024-01-30T04:57:55;99825.83;;;-1.76;60.10
80693;BME280;70055;39.436;-77.514;2024-01-30T05:00:24;99829.82;;;-0.91;56.79
80693;BME280;70055;39.436;-77.514;2024-01-30T05:02:52;99830.84;;;-1.47;59.02
80693;BME280;70055;39.436;-77.514;2024-01-30T05:05:20;99826.28;;;-0.38;56.92
80693;BME280;70055;39.436;-77.514;2024-01-30T05:07:48;99824.43;;;1.02;52.49
80693;BME280;70055;39.436;-77.514;2024-01-30T05:10:17;99821.38;;;2.31;49.92
80693;BME280;70055;39.436;-77.514;2024-01-30T05:12:45;99827.10;;;0.41;51.74
80693;BME280;70055;39.436;-77.514;2024-01-30T05:15:13;99831.07;;;-1.18;56.99
80693;BME280;70055;39.436;-77.514;2024-01-30T05:17:43;99829.36;;;-0.07;55.18
80693;BME280;70055;39.436;-77.514;2024-01-30T05:20:13;99836.26;;;-0.66;55.54
80693;BME280;70055;39.436;-77.514;2024-01-30T05:22:41;99833.53;;;-0.36;55.38
80693;BME280;70055;39.436;-77.514;2024-01-30T05:25:09;99833.88;;;0.50;52.50
80693;BME280;70055;39.436;-77.514;2024-01-30T05:27:37;99825.75;;;2.76;48.08
80693;BME280;70055;39.436;-77.514;2024-01-30T05:30:06;99827.52;;;0.92;51.60
80693;BME280;70055;39.436;-77.514;2024-01-30T05:32:35;99824.52;;;1.11;48.64
80693;BME280;70055;39.436;-77.514;2024-01-30T05:35:04;99834.28;;;-0.28;52.87
80693;BME280;70055;39.436;-77.514;2024-01-30T05:37:32;99842.91;;;-0.43;54.74
80693;BME280;70055;39.436;-77.514;2024-01-30T05:39:59;99838.09;;;-0.25;53.13
80693;BME280;70055;39.436;-77.514;2024-01-30T05:42:28;99838.72;;;0.21;52.54
80693;BME280;70055;39.436;-77.514;2024-01-30T05:44:56;99839.39;;;2.95;47.46
80693;BME280;70055;39.436;-77.514;2024-01-30T05:47:25;99842.01;;;1.43;49.55
80693;BME280;70055;39.436;-77.514;2024-01-30T05:49:52;99832.40;;;2.32;48.16
80693;BME280;70055;39.436;-77.514;2024-01-30T05:52:20;99836.18;;;0.07;52.74
80693;BME280;70055;39.436;-77.514;2024-01-30T05:54:47;99843.14;;;0.28;52.07
80693;BME280;70055;39.436;-77.514;2024-01-30T05:57:15;99853.13;;;-1.04;55.22
80693;BME280;70055;39.436;-77.514;2024-01-30T05:59:43;99848.17;;;0.05;52.76
80693;BME280;70055;39.436;-77.514;2024-01-30T06:02:11;99844.97;;;1.00;52.14
80693;BME280;70055;39.436;-77.514;2024-01-30T06:04:40;99847.12;;;-0.85;54.70
80693;BME280;70055;39.436;-77.514;2024-01-30T06:07:08;99840.84;;;-0.42;56.20
80693;BME280;70055;39.436;-77.514;2024-01-30T06:09:36;99842.18;;;0.08;54.24
80693;BME280;70055;39.436;-77.514;2024-01-30T06:12:05;99844.53;;;2.01;50.79
80693;BME280;70055;39.436;-77.514;2024-01-30T06:14:33;99845.80;;;2.44;48.01
80693;BME280;70055;39.436;-77.514;2024-01-30T06:17:01;99851.87;;;3.79;44.57
80693;BME280;70055;39.436;-77.514;2024-01-30T06:19:28;99851.41;;;3.87;44.01
80693;BME280;70055;39.436;-77.514;2024-01-30T06:21:59;99846.59;;;3.96;43.23
80693;BME280;70055;39.436;-77.514;2024-01-30T06:24:27;99842.74;;;4.50;42.01
80693;BME280;70055;39.436;-77.514;2024-01-30T06:26:57;99848.16;;;3.01;45.41
80693;BME280;70055;39.436;-77.514;2024-01-30T06:29:25;99846.89;;;3.48;44.86
80693;BME280;70055;39.436;-77.514;2024-01-30T06:31:56;99847.57;;;3.53;44.46
80693;BME280;70055;39.436;-77.514;2024-01-30T06:34:26;99847.32;;;4.34;42.85
80693;BME280;70055;39.436;-77.514;2024-01-30T06:36:53;99844.93;;;4.96;41.56
80693;BME280;70055;39.436;-77.514;2024-01-30T06:39:21;99844.34;;;5.27;40.78
80693;BME280;70055;39.436;-77.514;2024-01-30T06:41:49;99852.12;;;3.47;44.98
80693;BME280;70055;39.436;-77.514;2024-01-30T06:44:17;99846.72;;;3.86;44.65
80693;BME280;70055;39.436;-77.514;2024-01-30T06:46:44;99844.00;;;4.16;43.73
80693;BME280;70055;39.436;-77.514;2024-01-30T06:49:12;99841.93;;;4.51;41.91
80693;BME280;70055;39.436;-77.514;2024-01-30T06:51:40;99838.73;;;4.59;41.74
80693;BME280;70055;39.436;-77.514;2024-01-30T06:54:09;99844.07;;;4.24;42.02
80693;BME280;70055;39.436;-77.514;2024-01-30T06:56:38;99845.70;;;3.89;42.20
80693;BME280;70055;39.436;-77.514;2024-01-30T06:59:07;99844.27;;;3.72;42.79
80693;BME280;70055;39.436;-77.514;2024-01-30T07:01:36;99852.31;;;3.10;44.56
80693;BME280;70055;39.436;-77.514;2024-01-30T07:04:03;99846.88;;;4.34;42.69
80693;BME280;70055;39.436;-77.514;2024-01-30T07:06:31;99848.21;;;4.11;41.62
80693;BME280;70055;39.436;-77.514;2024-01-30T07:08:59;99852.20;;;4.48;40.94
80693;BME280;70055;39.436;-77.514;2024-01-30T07:11:27;99853.51;;;4.96;40.92
80693;BME280;70055;39.436;-77.514;2024-01-30T07:13:55;99852.49;;;4.14;41.78
80693;BME280;70055;39.436;-77.514;2024-01-30T07:16:22;99858.30;;;3.06;44.46
80693;BME280;70055;39.436;-77.514;2024-01-30T07:18:52;99852.63;;;4.14;42.83
80693;BME280;70055;39.436;-77.514;2024-01-30T07:21:20;99851.65;;;5.40;41.03
80693;BME280;70055;39.436;-77.514;2024-01-30T07:23:48;99853.33;;;4.87;41.05
80693;BME280;70055;39.436;-77.514;2024-01-30T07:26:18;99856.09;;;1.65;46.93
80693;BME280;70055;39.436;-77.514;2024-01-30T07:28:50;99849.19;;;1.47;49.08
80693;BME280;70055;39.436;-77.514;2024-01-30T07:31:18;99850.35;;;3.68;45.18
80693;BME280;70055;39.436;-77.514;2024-01-30T07:33:47;99857.40;;;3.42;45.83
80693;BME280;70055;39.436;-77.514;2024-01-30T07:36:15;99855.98;;;4.17;44.69
80693;BME280;70055;39.436;-77.514;2024-01-30T07:38:42;99853.07;;;4.51;43.44
80693;BME280;70055;39.436;-77.514;2024-01-30T07:41:10;99853.80;;;4.76;43.35
80693;BME280;70055;39.436;-77.514;2024-01-30T07:43:39;99855.34;;;4.61;43.84
80693;BME280;70055;39.436;-77.514;2024-01-30T07:46:07;99862.60;;;3.56;45.02
80693;BME280;70055;39.436;-77.514;2024-01-30T07:48:36;99864.64;;;4.64;43.82
80693;BME280;70055;39.436;-77.514;2024-01-30T07:51:04;99860.78;;;4.71;42.85
80693;BME280;70055;39.436;-77.514;2024-01-30T07:53:34;99863.25;;;4.94;42.42
80693;BME280;70055;39.436;-77.514;2024-01-30T07:56:03;99860.58;;;5.19;41.98
80693;BME280;70055;39.436;-77.514;2024-01-30T07:58:31;99856.51;;;5.19;41.91
80693;BME280;70055;39.436;-77.514;2024-01-30T08:01:01;99856.67;;;5.20;41.88
80693;BME280;70055;39.436;-77.514;2024-01-30T08:03:32;99862.53;;;5.16;41.70
80693;BME280;70055;39.436;-77.514;2024-01-30T08:05:59;99867.13;;;5.29;41.19
80693;BME280;70055;39.436;-77.514;2024-01-30T08:08:29;99867.49;;;5.52;41.26
80693;BME280;70055;39.436;-77.514;2024-01-30T08:10:57;99869.83;;;5.50;41.26
80693;BME280;70055;39.436;-77.514;2024-01-30T08:13:24;99871.48;;;4.56;42.19
80693;BME280;70055;39.436;-77.514;2024-01-30T08:15:52;99865.66;;;4.48;42.98
80693;BME280;70055;39.436;-77.514;2024-01-30T08:18:19;99865.62;;;4.09;43.39
80693;BME280;70055;39.436;-77.514;2024-01-30T08:20:48;99865.34;;;4.67;42.15
80693;BME280;70055;39.436;-77.514;2024-01-30T08:23:16;99868.22;;;5.83;40.22
80693;BME280;70055;39.436;-77.514;2024-01-30T08:25:44;99872.83;;;5.96;40.19
80693;BME280;70055;39.436;-77.514;2024-01-30T08:28:13;99879.85;;;5.74;39.72
80693;BME280;70055;39.436;-77.514;2024-01-30T08:30:41;99875.14;;;5.67;40.37
80693;BME280;70055;39.436;-77.514;2024-01-30T08:33:10;99867.44;;;5.94;39.64
80693;BME280;70055;39.436;-77.514;2024-01-30T08:35:38;99861.57;;;5.69;40.04
80693;BME280;70055;39.436;-77.514;2024-01-30T08:38:07;99854.74;;;4.96;41.26
80693;BME280;70055;39.436;-77.514;2024-01-30T08:40:35;99853.32;;;4.71;41.52
80693;BME280;70055;39.436;-77.514;2024-01-30T08:43:03;99850.36;;;5.00;41.46
80693;BME280;70055;39.436;-77.514;2024-01-30T08:45:31;99840.68;;;5.06;41.64
80693;BME280;70055;39.436;-77.514;2024-01-30T08:47:59;99840.84;;;5.00;40.79
80693;BME280;70055;39.436;-77.514;2024-01-30T08:50:29;99852.96;;;4.94;40.52
80693;BME280;70055;39.436;-77.514;2024-01-30T08:52:57;99860.41;;;5.62;40.74
80693;BME280;70055;39.436;-77.514;2024-01-30T08:55:25;99856.69;;;6.15;39.35
80693;BME280;70055;39.436;-77.514;2024-01-30T08:57:53;99855.36;;;6.11;39.40
80693;BME280;70055;39.436;-77.514;2024-01-30T09:00:22;99857.25;;;5.75;40.14
80693;BME280;70055;39.436;-77.514;2024-01-30T09:02:51;99860.66;;;6.08;39.61
80693;BME280;70055;39.436;-77.514;2024-01-30T09:05:19;99859.71;;;5.00;41.35
80693;BME280;70055;39.436;-77.514;2024-01-30T09:07:49;99858.31;;;5.02;41.52
80693;BME280;70055;39.436;-77.514;2024-01-30T09:10:17;99853.78;;;4.57;44.11
80693;BME280;70055;39.436;-77.514;2024-01-30T09:12:44;99849.68;;;3.87;44.57
80693;BME280;70055;39.436;-77.514;2024-01-30T09:15:13;99847.19;;;4.44;44.14
80693;BME280;70055;39.436;-77.514;2024-01-30T09:17:44;99843.94;;;4.87;42.84
80693;BME280;70055;39.436;-77.514;2024-01-30T09:20:12;99845.78;;;4.65;42.67
80693;BME280;70055;39.436;-77.514;2024-01-30T09:22:40;99846.23;;;3.79;44.22
80693;BME280;70055;39.436;-77.514;2024-01-30T09:25:09;99845.85;;;3.57;45.00
80693;BME280;70055;39.436;-77.514;2024-01-30T09:27:37;99850.90;;;4.53;43.04
80693;BME280;70055;39.436;-77.514;2024-01-30T09:30:07;99856.46;;;5.52;41.20
80693;BME280;70055;39.436;-77.514;2024-01-30T09:32:39;99854.50;;;5.36;40.79
80693;BME280;70055;39.436;-77.514;2024-01-30T09:35:07;99854.53;;;4.88;41.68
80693;BME280;70055;39.436;-77.514;2024-01-30T09:37:35;99853.73;;;5.78;40.50
80693;BME280;70055;39.436;-77.514;2024-01-30T09:40:03;99856.92;;;5.15;41.00
80693;BME280;70055;39.436;-77.514;2024-01-30T09:42:34;99864.27;;;5.10;42.11
80693;BME280;70055;39.436;-77.514;2024-01-30T09:45:03;99865.68;;;4.91;42.11
80693;BME280;70055;39.436;-77.514;2024-01-30T09:47:32;99872.62;;;3.95;44.75
80693;BME280;70055;39.436;-77.514;2024-01-30T09:50:06;99874.36;;;4.78;43.48
80693;BME280;70055;39.436;-77.514;2024-01-30T09:52:34;99875.77;;;4.87;42.91
80693;BME280;70055;39.436;-77.514;2024-01-30T09:55:05;99879.05;;;5.05;42.49
80693;BME280;70055;39.436;-77.514;2024-01-30T09:57:34;99877.41;;;4.78;42.45
80693;BME280;70055;39.436;-77.514;2024-01-30T10:00:05;99875.62;;;4.62;42.87
80693;BME280;70055;39.436;-77.514;2024-01-30T10:02:35;99875.18;;;4.74;42.32
80693;BME280;70055;39.436;-77.514;2024-01-30T10:05:03;99880.52;;;3.59;45.44
80693;BME280;70055;39.436;-77.514;2024-01-30T10:07:32;99879.07;;;3.79;46.23
80693;BME280;70055;39.436;-77.514;2024-01-30T10:10:00;99880.44;;;4.73;43.61
80693;BME280;70055;39.436;-77.514;2024-01-30T10:12:29;99887.34;;;4.71;43.48
80693;BME280;70055;39.436;-77.514;2024-01-30T10:14:58;99894.13;;;3.81;43.82
80693;BME280;70055;39.436;-77.514;2024-01-30T10:17:28;99894.41;;;4.29;44.11
80693;BME280;70055;39.436;-77.514;2024-01-30T10:19:57;99888.70;;;5.20;42.42
80693;BME280;70055;39.436;-77.514;2024-01-30T10:22:24;99891.23;;;4.40;43.98
80693;BME280;70055;39.436;-77.514;2024-01-30T10:24:52;99893.71;;;5.44;40.96
80693;BME280;70055;39.436;-77.514;2024-01-30T10:27:26;99894.68;;;4.08;43.15
80693;BME280;70055;39.436;-77.514;2024-01-30T10:29:54;99888.95;;;3.99;46.16
80693;BME280;70055;39.436;-77.514;2024-01-30T10:32:22;99888.69;;;4.41;45.13
80693;BME280;70055;39.436;-77.514;2024-01-30T10:34:50;99905.11;;;3.19;47.36
80693;BME280;70055;39.436;-77.514;2024-01-30T10:37:19;99892.42;;;4.46;45.34
80693;BME280;70055;39.436;-77.514;2024-01-30T10:39:53;99887.53;;;4.88;39.34
80693;BME280;70055;39.436;-77.514;2024-01-30T10:42:26;99889.66;;;5.48;39.53
80693;BME280;70055;39.436;-77.514;2024-01-30T10:45:04;99892.08;;;4.66;40.39
80693;BME280;70055;39.436;-77.514;2024-01-30T10:47:36;99885.46;;;5.52;40.82
80693;BME280;70055;39.436;-77.514;2024-01-30T10:50:07;99887.37;;;4.87;41.78
80693;BME280;70055;39.436;-77.514;2024-01-30T10:52:37;99891.27;;;4.86;42.24
80693;BME280;70055;39.436;-77.514;2024-01-30T10:55:06;99889.69;;;5.03;42.02
80693;BME280;70055;39.436;-77.514;2024-01-30T10:57:35;99884.70;;;4.75;42.07
80693;BME280;70055;39.436;-77.514;2024-01-30T11:00:07;99889.73;;;4.91;42.87
80693;BME280;70055;39.436;-77.514;2024-01-30T11:02:35;99896.12;;;5.05;42.75
80693;BME280;70055;39.436;-77.514;2024-01-30T11:05:05;99900.25;;;5.99;40.80
80693;BME280;70055;39.436;-77.514;2024-01-30T11:07:35;99903.08;;;5.73;41.16
80693;BME280;70055;39.436;-77.514;2024-01-30T11:10:04;99903.26;;;4.55;42.18
80693;BME280;70055;39.436;-77.514;2024-01-30T11:12:37;99905.96;;;4.77;40.29
80693;BME280;70055;39.436;-77.514;2024-01-30T11:15:08;99916.72;;;2.98;46.55
80693;BME280;70055;39.436;-77.514;2024-01-30T11:17:44;99918.42;;;4.56;44.07
80693;BME280;70055;39.436;-77.514;2024-01-30T11:20:19;99917.89;;;5.80;40.89
80693;BME280;70055;39.436;-77.514;2024-01-30T11:22:50;99922.73;;;4.65;41.57
80693;BME280;70055;39.436;-77.514;2024-01-30T11:25:23;99936.30;;;3.51;45.37
80693;BME280;70055;39.436;-77.514;2024-01-30T11:27:53;99936.33;;;4.66;44.99
80693;BME280;70055;39.436;-77.514;2024-01-30T11:30:22;99934.65;;;4.73;44.18
80693;BME280;70055;39.436;-77.514;2024-01-30T11:33:09;99941.50;;;3.97;45.53
80693;BME280;70055;39.436;-77.514;2024-01-30T11:35:38;99942.09;;;4.18;45.83
80693;BME280;70055;39.436;-77.514;2024-01-30T11:38:09;99946.39;;;3.39;46.00
80693;BME280;70055;39.436;-77.514;2024-01-30T11:40:38;99942.24;;;4.09;44.61
80693;BME280;70055;39.436;-77.514;2024-01-30T11:43:08;99935.00;;;4.55;42.70
80693;BME280;70055;39.436;-77.514;2024-01-30T11:45:38;99937.54;;;5.25;41.19
80693;BME280;70055;39.436;-77.514;2024-01-30T11:48:07;99940.09;;;5.40;40.94
80693;BME280;70055;39.436;-77.514;2024-01-30T11:50:39;99939.67;;;5.42;40.83
80693;BME280;70055;39.436;-77.514;2024-01-30T11:53:08;99941.26;;;4.98;41.72
80693;BME280;70055;39.436;-77.514;2024-01-30T11:55:36;99945.84;;;4.77;42.49
80693;BME280;70055;39.436;-77.514;2024-01-30T11:58:04;99954.82;;;4.79;42.68
80693;BME280;70055;39.436;-77.514;2024-01-30T12:00:34;99954.24;;;5.37;41.83
80693;BME280;70055;39.436;-77.514;2024-01-30T12:03:06;99954.45;;;5.69;40.54
80693;BME280;70055;39.436;-77.514;2024-01-30T12:05:36;99959.07;;;5.43;41.20
80693;BME280;70055;39.436;-77.514;2024-01-30T12:08:04;99966.59;;;4.39;42.95
80693;BME280;70055;39.436;-77.514;2024-01-30T12:10:32;99961.44;;;4.42;42.65
80693;BME280;70055;39.436;-77.514;2024-01-30T12:13:01;99963.82;;;4.48;42.14
80693;BME280;70055;39.436;-77.514;2024-01-30T12:15:30;99959.88;;;4.40;42.60
80693;BME280;70055;39.436;-77.514;2024-01-30T12:18:09;99964.68;;;5.05;42.05
80693;BME280;70055;39.436;-77.514;2024-01-30T12:20:37;99967.09;;;4.92;41.64
80693;BME280;70055;39.436;-77.514;2024-01-30T12:23:04;99973.35;;;4.88;40.67
80693;BME280;70055;39.436;-77.514;2024-01-30T12:25:32;99970.46;;;5.30;39.96
80693;BME280;70055;39.436;-77.514;2024-01-30T12:28:00;99970.00;;;5.28;40.63
80693;BME280;70055;39.436;-77.514;2024-01-30T12:30:28;99972.00;;;4.93;40.99
80693;BME280;70055;39.436;-77.514;2024-01-30T12:32:57;99973.71;;;5.34;40.53
80693;BME280;70055;39.436;-77.514;2024-01-30T12:35:25;99989.44;;;3.83;41.80
80693;BME280;70055;39.436;-77.514;2024-01-30T12:37:53;99985.16;;;4.39;40.55
80693;BME280;70055;39.436;-77.514;2024-01-30T12:40:21;99978.27;;;4.71;39.65
80693;BME280;70055;39.436;-77.514;2024-01-30T12:42:48;99982.94;;;4.17;42.41
80693;BME280;70055;39.436;-77.514;2024-01-30T12:45:19;99979.35;;;4.70;42.75
80693;BME280;70055;39.436;-77.514;2024-01-30T12:47:47;99981.93;;;3.87;43.44
80693;BME280;70055;39.436;-77.514;2024-01-30T12:50:18;99975.44;;;4.61;41.86
80693;BME280;70055;39.436;-77.514;2024-01-30T12:52:46;99978.79;;;4.73;41.61
80693;BME280;70055;39.436;-77.514;2024-01-30T12:55:15;99976.13;;;4.40;41.74